Time;durP1;ratioP1;P1;durP2;ratioP2;P2;SDS_P1;SDS_P2;PMS_P1;PMS_P2;Temp;Humidity;BMP_temperature;BMP_pressure;BME280_temperature;BME280_humidity;BME280_pressure;Samples;Min_cycle;Max_cycle;Signal;HPM_P1;HPM_P2
2023/11/15 00:02:13;;;;;;;4.22;1.00;;;8.40;99.90;;;;;;5058060;28;20505;-77
2023/11/15 00:04:39;;;;;;;2.95;0.80;;;8.40;99.90;;;;;;5060030;28;20060;-78
2023/11/15 00:07:04;;;;;;;0.82;0.70;;;8.40;99.90;;;;;;5056590;28;20021;-77
2023/11/15 00:09:31;;;;;;;2.30;0.80;;;8.40;99.90;;;;;;5050782;28;20035;-77
2023/11/15 00:11:57;;;;;;;3.40;0.80;;;8.30;99.90;;;;;;5057012;28;20032;-77
2023/11/15 00:14:23;;;;;;;0.50;0.50;;;8.30;99.90;;;;;;5058585;28;20071;-78
2023/11/15 00:16:49;;;;;;;2.13;0.60;;;8.30;99.90;;;;;;5060285;28;20021;-78
2023/11/15 00:19:14;;;;;;;1.67;0.50;;;8.30;99.90;;;;;;5057702;28;20129;-76
2023/11/15 00:21:41;;;;;;;0.85;0.60;;;8.30;99.90;;;;;;5054090;28;20049;-78
2023/11/15 00:24:07;;;;;;;1.83;0.60;;;8.20;99.90;;;;;;5058120;28;20025;-77
2023/11/15 00:26:33;;;;;;;1.02;0.55;;;8.20;99.90;;;;;;5057111;28;20021;-76
2023/11/15 00:28:59;;;;;;;4.88;0.77;;;8.20;99.90;;;;;;5054251;28;20386;-77
2023/11/15 00:31:24;;;;;;;0.73;0.60;;;8.20;99.90;;;;;;5038488;28;20097;-77
2023/11/15 00:33:51;;;;;;;0.40;0.20;;;8.20;99.90;;;;;;5049856;28;20020;-77
2023/11/15 00:36:19;;;;;;;1.45;0.50;;;8.10;99.90;;;;;;5049524;28;20633;-76
2023/11/15 00:38:46;;;;;;;2.70;0.30;;;8.10;99.90;;;;;;5058640;28;20038;-77
2023/11/15 00:41:14;;;;;;;1.15;0.20;;;8.00;99.90;;;;;;5019718;28;20108;-78
2023/11/15 00:43:39;;;;;;;0.30;0.30;;;8.00;99.90;;;;;;5040634;28;20500;-78
2023/11/15 00:46:05;;;;;;;0.60;0.40;;;8.00;99.90;;;;;;5055267;28;20056;-78
2023/11/15 00:48:32;;;;;;;1.65;0.40;;;7.90;99.90;;;;;;5052054;28;20079;-78
2023/11/15 00:50:57;;;;;;;0.57;0.20;;;7.90;99.90;;;;;;5031359;28;20409;-78
2023/11/15 00:53:24;;;;;;;0.20;0.20;;;7.90;99.90;;;;;;5044669;28;20084;-78
2023/11/15 00:55:50;;;;;;;2.65;0.30;;;7.80;99.90;;;;;;5054840;28;20028;-78
2023/11/15 00:58:17;;;;;;;1.60;0.40;;;7.90;99.90;;;;;;5050109;28;20044;-78
2023/11/15 01:00:48;;;;;;;2.15;0.40;;;7.80;99.90;;;;;;5048263;28;20052;-77
2023/11/15 01:03:25;;;;;;;0.35;0.30;;;7.80;99.90;;;;;;5048425;28;20036;-77
2023/11/15 01:05:55;;;;;;;0.55;0.40;;;7.70;99.90;;;;;;5034038;28;20068;-78
2023/11/15 01:08:23;;;;;;;0.35;0.32;;;7.70;99.90;;;;;;5032007;28;20051;-78
2023/11/15 01:10:51;;;;;;;2.42;0.50;;;7.70;99.90;;;;;;5049517;28;20387;-77
2023/11/15 01:13:16;;;;;;;1.95;0.50;;;7.70;99.90;;;;;;5051142;28;20029;-79
2023/11/15 01:15:42;;;;;;;2.90;0.80;;;7.70;99.90;;;;;;5052677;28;20040;-77
2023/11/15 01:18:09;;;;;;;0.50;0.30;;;7.60;99.90;;;;;;5043991;28;20394;-77
2023/11/15 01:20:36;;;;;;;4.20;0.82;;;7.70;99.90;;;;;;5032948;28;20043;-77
2023/11/15 01:23:05;;;;;;;4.07;0.73;;;7.60;99.90;;;;;;5049434;28;20025;-78
2023/11/15 01:25:31;;;;;;;1.90;0.40;;;7.60;99.90;;;;;;5036845;28;20064;-77
2023/11/15 01:27:58;;;;;;;0.98;0.45;;;7.60;99.90;;;;;;5048462;28;20715;-78
2023/11/15 01:30:24;;;;;;;3.55;0.50;;;7.60;99.90;;;;;;5041115;28;20398;-77
2023/11/15 01:32:53;;;;;;;0.40;0.35;;;7.60;99.90;;;;;;5054954;28;20449;-77
2023/11/15 01:35:19;;;;;;;1.10;0.30;;;7.60;99.90;;;;;;5037705;28;20036;-79
2023/11/15 01:37:46;;;;;;;1.25;0.65;;;7.60;99.90;;;;;;5057745;28;20440;-77
2023/11/15 01:40:13;;;;;;;0.40;0.40;;;7.60;99.90;;;;;;5045711;28;20025;-78
2023/11/15 01:42:40;;;;;;;0.98;0.30;;;7.60;99.90;;;;;;5045412;28;20499;-78
2023/11/15 01:45:06;;;;;;;1.70;0.40;;;7.50;99.90;;;;;;5057235;28;20032;-79
2023/11/15 01:47:35;;;;;;;0.30;0.20;;;7.50;99.90;;;;;;5057414;28;20036;-79
2023/11/15 01:50:05;;;;;;;3.35;0.32;;;7.50;99.90;;;;;;5055821;28;20036;-79
2023/11/15 01:52:31;;;;;;;2.30;0.40;;;7.60;99.90;;;;;;5043567;28;20025;-79
2023/11/15 01:55:00;;;;;;;2.47;0.45;;;7.60;99.90;;;;;;5071711;28;20108;-80
2023/11/15 01:57:26;;;;;;;0.25;0.25;;;7.50;99.90;;;;;;5059007;28;20445;-78
2023/11/15 01:59:52;;;;;;;0.50;0.30;;;7.60;99.90;;;;;;5034598;28;20033;-79
2023/11/15 02:02:18;;;;;;;10.90;0.75;;;7.60;99.90;;;;;;5067838;28;20138;-79
2023/11/15 02:04:44;;;;;;;3.10;0.32;;;7.60;99.90;;;;;;5055274;28;20430;-78
2023/11/15 02:07:09;;;;;;;7.28;0.40;;;7.50;99.90;;;;;;5036490;28;20028;-79
2023/11/15 02:09:36;;;;;;;19.90;0.82;;;7.60;99.90;;;;;;5054613;28;20036;-78
2023/11/15 02:12:03;;;;;;;21.83;0.88;;;7.60;99.90;;;;;;5037698;28;20407;-79
2023/11/15 02:14:30;;;;;;;33.28;1.60;;;7.60;99.90;;;;;;5055216;28;20028;-79
2023/11/15 02:16:56;;;;;;;11.75;1.05;;;7.60;99.90;;;;;;5058658;28;20139;-79
2023/11/15 02:19:22;;;;;;;9.73;0.50;;;7.60;99.90;;;;;;5047159;28;20142;-78
2023/11/15 02:21:48;;;;;;;0.30;0.20;;;7.60;99.90;;;;;;5056050;28;20115;-79
2023/11/15 02:24:14;;;;;;;5.60;0.40;;;7.60;99.90;;;;;;5056772;28;20059;-79
2023/11/15 02:26:40;;;;;;;2.90;0.17;;;7.60;99.90;;;;;;5054220;28;20029;-78
2023/11/15 02:29:06;;;;;;;0.40;0.30;;;7.60;99.90;;;;;;5045524;28;20111;-78
2023/11/15 02:31:32;;;;;;;1.00;0.20;;;7.60;99.90;;;;;;5037157;28;20030;-76
2023/11/15 02:33:58;;;;;;;9.57;0.45;;;7.60;99.90;;;;;;5032638;28;20487;-77
2023/11/15 02:36:24;;;;;;;1.15;0.25;;;7.60;99.90;;;;;;5038907;28;20029;-77
2023/11/15 02:38:49;;;;;;;31.70;1.65;;;7.60;99.90;;;;;;5048989;28;20565;-77
2023/11/15 02:41:15;;;;;;;0.40;0.17;;;7.60;99.90;;;;;;5049770;28;20082;-78
2023/11/15 02:43:41;;;;;;;1.27;1.10;;;7.60;99.90;;;;;;5052661;28;20091;-78
2023/11/15 02:46:07;;;;;;;3.40;0.28;;;7.60;99.90;;;;;;5035254;28;20596;-75
2023/11/15 02:48:33;;;;;;;9.35;0.88;;;7.60;99.90;;;;;;5049054;28;20436;-78
2023/11/15 02:50:59;;;;;;;0.22;0.20;;;7.60;99.90;;;;;;5052988;28;20090;-77
2023/11/15 02:53:25;;;;;;;6.65;0.80;;;7.50;99.90;;;;;;5050627;28;20033;-77
2023/11/15 02:55:50;;;;;;;58.08;2.25;;;7.60;99.90;;;;;;5052973;28;20082;-77
2023/11/15 02:58:16;;;;;;;0.50;0.50;;;7.60;99.90;;;;;;5051192;28;20025;-77
2023/11/15 03:00:42;;;;;;;0.85;0.30;;;7.60;99.90;;;;;;5047468;28;20033;-77
2023/11/15 03:03:08;;;;;;;1.48;0.32;;;7.60;99.90;;;;;;5049025;28;20040;-76
2023/11/15 03:05:33;;;;;;;1.95;0.30;;;7.60;99.90;;;;;;5046169;28;20029;-77
2023/11/15 03:08:00;;;;;;;1.25;0.20;;;7.60;99.90;;;;;;5056024;28;20106;-76
2023/11/15 03:10:25;;;;;;;0.30;0.20;;;7.60;99.90;;;;;;5047440;28;20021;-76
2023/11/15 03:12:51;;;;;;;4.75;0.95;;;7.60;99.90;;;;;;5047254;28;20052;-77
2023/11/15 03:15:18;;;;;;;0.82;0.30;;;7.60;99.90;;;;;;5048295;28;20024;-77
2023/11/15 03:17:45;;;;;;;1.98;0.25;;;7.60;99.90;;;;;;5049846;28;20663;-77
2023/11/15 03:20:10;;;;;;;24.10;1.67;;;7.60;99.90;;;;;;5050028;28;20035;-76
2023/11/15 03:22:36;;;;;;;41.25;1.90;;;7.60;99.90;;;;;;5044206;28;20029;-76
2023/11/15 03:25:03;;;;;;;1.38;0.40;;;7.60;99.90;;;;;;5064911;28;20032;-78
2023/11/15 03:27:29;;;;;;;0.90;0.32;;;7.60;99.90;;;;;;5049891;28;20346;-77
2023/11/15 03:29:54;;;;;;;0.57;0.32;;;7.60;99.90;;;;;;5050606;28;20029;-76
2023/11/15 03:32:20;;;;;;;1.92;0.40;;;7.60;99.90;;;;;;5048744;28;20036;-77
2023/11/15 03:34:47;;;;;;;2.85;0.60;;;7.60;99.90;;;;;;5064653;28;20025;-76
2023/11/15 03:37:14;;;;;;;0.80;0.50;;;7.60;99.90;;;;;;5035277;28;20364;-76
2023/11/15 03:39:40;;;;;;;2.33;0.40;;;7.60;99.90;;;;;;5053151;28;20131;-76
2023/11/15 03:42:06;;;;;;;12.63;1.10;;;7.60;99.90;;;;;;5038214;28;20056;-77
2023/11/15 03:44:32;;;;;;;3.97;0.45;;;7.60;99.90;;;;;;5035979;28;20025;-76
2023/11/15 03:46:58;;;;;;;22.17;1.25;;;7.60;99.90;;;;;;5051667;28;20425;-76
2023/11/15 03:49:24;;;;;;;12.73;0.93;;;7.60;99.90;;;;;;5047397;28;20152;-76
2023/11/15 03:51:50;;;;;;;2.05;0.40;;;7.60;99.90;;;;;;5050241;28;20111;-78
2023/11/15 03:54:15;;;;;;;12.50;1.63;;;7.60;99.90;;;;;;5040667;28;20172;-77
2023/11/15 03:56:41;;;;;;;11.35;1.08;;;7.60;99.90;;;;;;5045258;28;20039;-77
2023/11/15 03:59:07;;;;;;;18.50;1.58;;;7.70;99.90;;;;;;5042642;28;20048;-77
2023/11/15 04:01:33;;;;;;;1.73;0.70;;;7.70;99.90;;;;;;5051006;28;20033;-77
2023/11/15 04:03:59;;;;;;;5.80;0.60;;;7.70;99.90;;;;;;5052863;28;20399;-77
2023/11/15 04:06:27;;;;;;;2.08;0.80;;;7.70;99.90;;;;;;5050423;28;20037;-77
2023/11/15 04:08:56;;;;;;;2.97;0.60;;;7.70;99.90;;;;;;5041282;28;20033;-77
2023/11/15 04:11:22;;;;;;;3.10;0.77;;;7.60;99.90;;;;;;5047989;28;20506;-77
2023/11/15 04:13:48;;;;;;;3.13;0.70;;;7.60;99.90;;;;;;5064369;28;20037;-77
2023/11/15 04:16:14;;;;;;;3.38;0.80;;;7.60;99.90;;;;;;5018496;28;20029;-77
2023/11/15 04:18:40;;;;;;;2.40;1.10;;;7.60;99.90;;;;;;5047021;28;20036;-77
2023/11/15 04:21:06;;;;;;;8.32;1.35;;;7.60;99.90;;;;;;5046017;28;20032;-78
2023/11/15 04:23:32;;;;;;;40.15;2.92;;;7.60;99.90;;;;;;5051218;28;20059;-77
2023/11/15 04:25:58;;;;;;;13.77;1.40;;;7.60;99.90;;;;;;5050238;28;20101;-77
2023/11/15 04:28:24;;;;;;;3.60;1.02;;;7.60;99.90;;;;;;5035101;28;20120;-77
2023/11/15 04:30:50;;;;;;;7.32;1.80;;;7.60;99.90;;;;;;5050617;28;20039;-77
2023/11/15 04:33:15;;;;;;;11.13;1.30;;;7.60;99.90;;;;;;5048309;28;20398;-76
2023/11/15 04:35:41;;;;;;;65.82;5.20;;;7.60;99.90;;;;;;5048221;28;20025;-77
2023/11/15 04:38:09;;;;;;;4.65;1.05;;;7.60;99.90;;;;;;5044832;28;20425;-77
2023/11/15 04:40:38;;;;;;;19.10;1.95;;;7.60;99.90;;;;;;5045698;28;20056;-77
2023/11/15 04:43:07;;;;;;;1.67;1.20;;;7.60;99.90;;;;;;5044631;28;20044;-76
2023/11/15 04:45:32;;;;;;;2.33;1.63;;;7.60;99.90;;;;;;5048042;28;20055;-77
2023/11/15 04:47:58;;;;;;;5.55;1.23;;;7.60;99.90;;;;;;5046838;28;20037;-77
2023/11/15 04:50:25;;;;;;;3.95;1.10;;;7.60;99.90;;;;;;5046613;28;20043;-76
2023/11/15 04:52:51;;;;;;;4.05;1.17;;;7.60;99.90;;;;;;5050250;28;20102;-77
2023/11/15 04:55:20;;;;;;;7.45;1.23;;;7.50;99.90;;;;;;5049497;28;20478;-78
2023/11/15 04:57:46;;;;;;;3.53;1.00;;;7.50;99.90;;;;;;5049209;28;20043;-77
2023/11/15 05:00:12;;;;;;;2.17;0.85;;;7.50;99.90;;;;;;5047032;28;20029;-77
2023/11/15 05:02:38;;;;;;;9.80;1.20;;;7.60;99.90;;;;;;5048039;28;20037;-77
2023/11/15 05:05:05;;;;;;;5.03;1.00;;;7.60;99.90;;;;;;5047715;28;20082;-77
2023/11/15 05:07:32;;;;;;;3.55;1.00;;;7.60;99.90;;;;;;5034353;28;20025;-77
2023/11/15 05:09:58;;;;;;;2.22;0.90;;;7.60;99.90;;;;;;5045832;28;20041;-77
2023/11/15 05:12:24;;;;;;;6.68;1.50;;;7.60;99.90;;;;;;5048680;28;20021;-77
2023/11/15 05:14:50;;;;;;;2.75;1.13;;;7.60;99.90;;;;;;5049181;28;20078;-77
2023/11/15 05:17:15;;;;;;;1.52;1.10;;;7.50;99.90;;;;;;5051501;28;20052;-77
2023/11/15 05:19:41;;;;;;;5.80;1.20;;;7.60;99.90;;;;;;5046208;28;20107;-77
2023/11/15 05:22:07;;;;;;;2.92;1.10;;;7.50;99.90;;;;;;5037436;28;20037;-77
2023/11/15 05:24:33;;;;;;;4.60;1.02;;;7.60;99.90;;;;;;5038022;28;20095;-77
2023/11/15 05:26:58;;;;;;;4.22;1.02;;;7.50;99.90;;;;;;5044111;28;20644;-77
2023/11/15 05:29:25;;;;;;;4.55;1.05;;;7.60;99.90;;;;;;5039672;28;20115;-77
2023/11/15 05:31:51;;;;;;;3.63;0.93;;;7.60;99.90;;;;;;5045198;28;20107;-77
2023/11/15 05:34:16;;;;;;;5.93;1.10;;;7.50;99.90;;;;;;5045837;28;20052;-77
2023/11/15 05:36:42;;;;;;;4.50;1.00;;;7.60;99.90;;;;;;5047031;28;20108;-77
2023/11/15 05:39:11;;;;;;;7.95;1.00;;;7.50;99.90;;;;;;5046862;28;20094;-77
2023/11/15 05:41:36;;;;;;;62.55;2.55;;;7.50;99.90;;;;;;5047201;28;20124;-77
2023/11/15 05:44:03;;;;;;;4.70;1.00;;;7.60;99.90;;;;;;5047285;28;20117;-77
2023/11/15 05:46:29;;;;;;;3.50;1.23;;;7.60;99.90;;;;;;5046858;28;20041;-77
2023/11/15 05:48:55;;;;;;;5.30;1.23;;;7.50;99.90;;;;;;5045468;28;20029;-77
2023/11/15 05:51:21;;;;;;;4.40;1.10;;;7.50;99.90;;;;;;5046790;28;20045;-77
2023/11/15 05:53:47;;;;;;;3.92;1.05;;;7.50;99.90;;;;;;5047812;28;20511;-77
2023/11/15 05:56:12;;;;;;;5.78;1.02;;;7.50;99.90;;;;;;5049292;28;20029;-77
2023/11/15 05:58:38;;;;;;;11.35;1.45;;;7.50;99.90;;;;;;5049481;28;20111;-77
2023/11/15 06:01:04;;;;;;;10.73;1.20;;;7.60;99.90;;;;;;5052460;28;20479;-77
2023/11/15 06:03:29;;;;;;;5.75;1.35;;;7.50;99.90;;;;;;5053299;28;20106;-77
2023/11/15 06:05:55;;;;;;;3.97;1.10;;;7.50;99.90;;;;;;5055766;28;20041;-77
2023/11/15 06:08:21;;;;;;;3.25;1.08;;;7.50;99.90;;;;;;5035875;28;20038;-77
2023/11/15 06:10:48;;;;;;;2.92;0.80;;;7.50;99.90;;;;;;5050641;28;20040;-77
2023/11/15 06:13:15;;;;;;;11.43;1.30;;;7.50;99.90;;;;;;5050538;28;20521;-78
2023/11/15 06:15:44;;;;;;;5.03;1.10;;;7.50;99.90;;;;;;5050565;28;20386;-77
2023/11/15 06:18:12;;;;;;;3.88;1.15;;;7.60;99.90;;;;;;5048843;28;20060;-77
2023/11/15 06:20:38;;;;;;;3.95;1.10;;;7.50;99.90;;;;;;5050290;28;20782;-77
2023/11/15 06:23:04;;;;;;;8.10;1.00;;;7.50;99.90;;;;;;5050355;28;20044;-77
2023/11/15 06:25:32;;;;;;;20.88;1.58;;;7.50;99.90;;;;;;5032736;28;20102;-77
2023/11/15 06:28:03;;;;;;;3.72;1.17;;;7.60;99.90;;;;;;5049321;28;20083;-77
2023/11/15 06:30:29;;;;;;;54.30;3.55;;;7.50;99.90;;;;;;5050251;28;20131;-77
2023/11/15 06:32:55;;;;;;;29.40;2.35;;;7.50;99.90;;;;;;5044973;28;20536;-77
2023/11/15 06:35:21;;;;;;;3.00;1.05;;;7.40;99.90;;;;;;5048924;28;20029;-77
2023/11/15 06:37:48;;;;;;;7.90;1.17;;;7.40;99.90;;;;;;5047697;28;20388;-77
2023/11/15 06:40:18;;;;;;;6.82;1.20;;;7.40;99.90;;;;;;5047788;28;20073;-77
2023/11/15 06:42:44;;;;;;;4.28;1.20;;;7.40;99.90;;;;;;5050830;28;20251;-76
2023/11/15 06:45:12;;;;;;;5.47;1.00;;;7.40;99.90;;;;;;5049787;28;20591;-77
2023/11/15 06:47:38;;;;;;;7.28;1.10;;;7.40;99.90;;;;;;5036851;28;20036;-77
2023/11/15 06:50:07;;;;;;;4.07;1.25;;;7.50;99.90;;;;;;5053902;28;20029;-77
2023/11/15 06:52:33;;;;;;;5.45;1.50;;;7.50;99.90;;;;;;5050991;28;20768;-77
2023/11/15 06:54:59;;;;;;;7.32;1.55;;;7.50;99.90;;;;;;5049768;28;20087;-77
2023/11/15 06:57:26;;;;;;;6.00;1.17;;;7.60;99.90;;;;;;5052454;28;20037;-78
2023/11/15 06:59:53;;;;;;;6.47;1.65;;;7.60;99.90;;;;;;5054349;28;20037;-77
2023/11/15 07:02:18;;;;;;;5.97;1.23;;;7.50;99.90;;;;;;5049120;28;20164;-77
2023/11/15 07:04:44;;;;;;;5.15;1.70;;;7.50;99.90;;;;;;5049159;28;20124;-77
2023/11/15 07:07:10;;;;;;;6.15;1.60;;;7.50;99.90;;;;;;5037062;28;20036;-76
2023/11/15 07:09:36;;;;;;;31.00;2.33;;;7.60;99.90;;;;;;5049301;28;20029;-77
2023/11/15 07:12:04;;;;;;;6.15;1.60;;;7.50;99.90;;;;;;5050311;28;20194;-77
2023/11/15 07:14:30;;;;;;;4.40;2.08;;;7.60;99.90;;;;;;5050159;28;20083;-77
2023/11/15 07:16:56;;;;;;;4.47;1.10;;;7.60;99.90;;;;;;5049100;28;20047;-76
2023/11/15 07:19:25;;;;;;;6.30;1.30;;;7.60;99.90;;;;;;5042908;28;20120;-77
2023/11/15 07:21:52;;;;;;;3.65;1.73;;;7.60;99.90;;;;;;5039346;28;20065;-75
2023/11/15 07:24:19;;;;;;;5.18;1.30;;;7.60;99.90;;;;;;5025879;28;20112;-78
2023/11/15 07:26:45;;;;;;;6.10;1.30;;;7.70;99.90;;;;;;5039702;28;20036;-78
2023/11/15 07:29:13;;;;;;;3.97;1.27;;;7.70;99.90;;;;;;5042792;28;20025;-77
2023/11/15 07:31:40;;;;;;;12.25;1.60;;;7.70;99.90;;;;;;5042523;28;20538;-77
2023/11/15 07:34:08;;;;;;;12.38;1.88;;;7.70;99.90;;;;;;5044876;28;20108;-77
2023/11/15 07:36:38;;;;;;;3.67;1.33;;;7.70;99.90;;;;;;5046570;28;20112;-77
2023/11/15 07:39:04;;;;;;;14.45;3.17;;;7.70;99.90;;;;;;5042444;28;20415;-76
2023/11/15 07:41:31;;;;;;;25.25;2.20;;;7.60;99.90;;;;;;5010533;28;20040;-77
2023/11/15 07:43:58;;;;;;;6.53;1.35;;;7.70;99.90;;;;;;5044545;28;20047;-77
2023/11/15 07:46:24;;;;;;;6.10;1.38;;;7.70;99.90;;;;;;5044614;28;20136;-77
2023/11/15 07:48:52;;;;;;;3.45;1.00;;;7.80;99.90;;;;;;5043454;28;20147;-77
2023/11/15 07:51:18;;;;;;;6.60;1.92;;;7.80;99.90;;;;;;5043494;28;20033;-78
2023/11/15 07:53:45;;;;;;;7.00;1.38;;;7.80;99.90;;;;;;5033362;28;20035;-77
2023/11/15 07:56:11;;;;;;;60.22;3.90;;;7.80;99.90;;;;;;5040419;28;20408;-77
2023/11/15 07:58:37;;;;;;;10.35;1.40;;;7.80;99.90;;;;;;5043817;28;20037;-77
2023/11/15 08:01:04;;;;;;;1.75;1.17;;;7.90;99.90;;;;;;5043548;28;20133;-77
2023/11/15 08:03:30;;;;;;;6.53;1.15;;;8.00;99.90;;;;;;5037178;28;20142;-77
2023/11/15 08:05:55;;;;;;;5.63;1.40;;;8.00;99.90;;;;;;5041960;28;20033;-77
2023/11/15 08:08:22;;;;;;;6.72;1.50;;;8.00;99.90;;;;;;5042219;28;20037;-77
2023/11/15 08:10:50;;;;;;;3.33;1.10;;;8.00;99.90;;;;;;5026097;28;20025;-76
2023/11/15 08:13:21;;;;;;;22.17;2.88;;;8.00;99.90;;;;;;5046038;28;20651;-77
2023/11/15 08:15:47;;;;;;;7.47;1.30;;;8.00;99.90;;;;;;5043640;28;20169;-78
2023/11/15 08:18:14;;;;;;;10.57;1.60;;;7.90;99.90;;;;;;5043957;28;20510;-75
2023/11/15 08:20:43;;;;;;;6.93;2.00;;;8.00;99.90;;;;;;5044436;28;20056;-77
2023/11/15 08:23:12;;;;;;;3.72;1.35;;;8.00;99.90;;;;;;5043203;28;20040;-77
2023/11/15 08:25:41;;;;;;;6.50;1.13;;;8.10;99.90;;;;;;5042695;28;20632;-76
2023/11/15 08:28:07;;;;;;;4.78;1.58;;;8.20;99.90;;;;;;5043091;28;20548;-76
2023/11/15 08:30:33;;;;;;;5.82;1.35;;;8.40;99.90;;;;;;5042807;28;20087;-77
2023/11/15 08:32:59;;;;;;;4.32;0.90;;;8.50;99.90;;;;;;5025437;28;20032;-76
2023/11/15 08:35:26;;;;;;;4.70;1.00;;;8.50;99.90;;;;;;5041673;28;20398;-76
2023/11/15 08:37:52;;;;;;;9.00;1.45;;;8.60;99.90;;;;;;5042864;28;20086;-76
2023/11/15 08:40:22;;;;;;;4.22;1.05;;;8.60;99.90;;;;;;5043221;28;20036;-76
2023/11/15 08:42:49;;;;;;;8.02;1.33;;;8.60;99.90;;;;;;5044119;28;20021;-77
2023/11/15 08:45:15;;;;;;;6.85;1.58;;;8.50;99.90;;;;;;5041279;28;20029;-76
2023/11/15 08:47:41;;;;;;;8.30;1.75;;;8.50;99.90;;;;;;5041574;28;20501;-76
2023/11/15 08:50:09;;;;;;;5.28;1.60;;;8.50;99.90;;;;;;5043551;28;20024;-76
2023/11/15 08:52:39;;;;;;;4.50;1.27;;;8.60;99.90;;;;;;5043267;28;20120;-76
2023/11/15 08:55:06;;;;;;;5.45;1.63;;;8.60;99.90;;;;;;5041770;28;20037;-76
2023/11/15 08:57:32;;;;;;;7.95;1.50;;;8.60;99.90;;;;;;5043920;28;20055;-76
2023/11/15 08:59:58;;;;;;;3.42;1.38;;;8.60;99.90;;;;;;5048525;28;20021;-77
2023/11/15 09:02:24;;;;;;;2.90;1.38;;;8.70;99.90;;;;;;5046746;28;20470;-77
2023/11/15 09:04:53;;;;;;;6.90;1.35;;;8.70;99.90;;;;;;5047838;28;20529;-76
2023/11/15 09:07:19;;;;;;;4.70;1.50;;;8.70;99.90;;;;;;5039638;28;20037;-77
2023/11/15 09:09:46;;;;;;;4.10;1.25;;;8.80;99.90;;;;;;5038417;28;20029;-77
2023/11/15 09:12:12;;;;;;;4.10;1.52;;;8.80;99.90;;;;;;5037995;28;20025;-77
2023/11/15 09:14:38;;;;;;;7.53;1.30;;;8.80;99.90;;;;;;5041420;28;20033;-77
2023/11/15 09:17:07;;;;;;;1.85;1.08;;;8.80;99.90;;;;;;5045854;28;20059;-76
2023/11/15 09:19:34;;;;;;;6.22;1.33;;;8.80;99.90;;;;;;5045733;28;20033;-77
2023/11/15 09:22:03;;;;;;;5.15;1.15;;;8.70;99.90;;;;;;5047280;28;20064;-77
2023/11/15 09:24:29;;;;;;;5.55;1.17;;;8.70;99.90;;;;;;5052613;28;20065;-77
2023/11/15 09:27:00;;;;;;;6.03;1.40;;;8.70;99.90;;;;;;5051230;28;20021;-76
2023/11/15 09:29:30;;;;;;;6.07;1.33;;;8.70;99.90;;;;;;5050502;28;20787;-76
2023/11/15 09:31:55;;;;;;;2.40;1.02;;;8.70;99.90;;;;;;5048441;28;20061;-77
2023/11/15 09:34:21;;;;;;;8.15;1.05;;;8.60;99.90;;;;;;5054419;28;20518;-77
2023/11/15 09:36:50;;;;;;;4.22;1.25;;;8.60;99.90;;;;;;5040879;28;20049;-78
2023/11/15 09:39:18;;;;;;;6.95;1.10;;;8.60;99.90;;;;;;5044157;28;20033;-77
2023/11/15 09:41:55;;;;;;;5.47;1.30;;;8.60;99.90;;;;;;5044769;28;20028;-77
2023/11/15 09:44:23;;;;;;;16.55;3.05;;;8.60;99.90;;;;;;5050746;28;20086;-80
2023/11/15 09:46:53;;;;;;;5.30;1.48;;;8.50;99.90;;;;;;5050249;28;20082;-78
2023/11/15 09:49:20;;;;;;;5.70;1.30;;;8.50;99.90;;;;;;5037301;28;20410;-77
2023/11/15 09:51:45;;;;;;;6.63;1.80;;;8.50;99.90;;;;;;5055014;28;20037;-77
2023/11/15 09:54:12;;;;;;;6.43;1.40;;;8.50;99.90;;;;;;5054342;28;20079;-77
2023/11/15 09:56:44;;;;;;;2.35;1.10;;;8.50;99.90;;;;;;5058574;28;20664;-77
2023/11/15 09:59:10;;;;;;;7.60;1.83;;;8.50;99.90;;;;;;5056189;28;20043;-78
2023/11/15 10:01:43;;;;;;;12.52;1.52;;;8.50;99.90;;;;;;5052384;28;20037;-77
2023/11/15 10:04:23;;;;;;;4.53;1.20;;;8.50;99.90;;;;;;5045868;28;20055;-78
2023/11/15 10:06:52;;;;;;;5.90;1.23;;;8.50;99.90;;;;;;5052646;22;20058;-77
2023/11/15 10:09:38;;;;;;;4.85;1.30;;;8.50;99.90;;;;;;5066184;28;20042;-76
2023/11/15 10:12:06;;;;;;;3.55;0.93;;;8.50;99.90;;;;;;5064155;28;20370;-77
2023/11/15 10:14:36;;;;;;;5.30;1.25;;;8.50;99.90;;;;;;5070415;28;20078;-76
2023/11/15 10:17:06;;;;;;;2.58;1.27;;;8.60;99.90;;;;;;5061665;28;20398;-76
2023/11/15 10:19:34;;;;;;;8.02;1.02;;;8.60;99.90;;;;;;5057056;28;20032;-78
2023/11/15 10:22:04;;;;;;;5.38;1.45;;;8.60;99.90;;;;;;5058869;28;20036;-77
2023/11/15 10:24:34;;;;;;;7.32;1.58;;;8.70;99.90;;;;;;5052345;28;20112;-77
2023/11/15 10:27:08;;;;;;;5.78;1.38;;;8.70;99.90;;;;;;5060466;28;20454;-77
2023/11/15 10:29:39;;;;;;;3.75;1.20;;;8.80;99.90;;;;;;5059064;28;20052;-78
2023/11/15 10:32:05;;;;;;;8.43;1.40;;;8.90;99.90;;;;;;5054191;28;20055;-77
2023/11/15 10:34:34;;;;;;;6.20;1.77;;;8.90;99.90;;;;;;5051289;28;20033;-78
2023/11/15 10:37:12;;;;;;;4.63;1.13;;;8.90;99.90;;;;;;5060116;28;20029;-77
2023/11/15 10:39:46;;;;;;;6.60;1.23;;;8.90;99.90;;;;;;5052147;28;20037;-78
2023/11/15 10:42:13;;;;;;;9.98;1.80;;;8.90;99.90;;;;;;5054064;28;20049;-78
2023/11/15 10:44:41;;;;;;;2.53;1.30;;;9.00;99.90;;;;;;5052052;28;20091;-77
2023/11/15 10:47:08;;;;;;;5.20;1.55;;;9.00;99.90;;;;;;5057382;28;20447;-78
2023/11/15 10:49:43;;;;;;;5.60;1.40;;;9.10;99.90;;;;;;5056003;28;20606;-78
2023/11/15 10:52:11;;;;;;;3.20;1.27;;;9.10;99.90;;;;;;5063678;28;20094;-78
2023/11/15 10:54:38;;;;;;;5.95;1.38;;;9.10;99.90;;;;;;5053316;28;20090;-78
2023/11/15 10:57:07;;;;;;;2.03;1.27;;;9.20;99.90;;;;;;5055931;28;20090;-78
2023/11/15 10:59:39;;;;;;;6.55;1.30;;;9.10;99.90;;;;;;5067063;28;20033;-77
2023/11/15 11:02:05;;;;;;;8.13;1.67;;;9.20;99.90;;;;;;5058464;28;20102;-78
2023/11/15 11:04:33;;;;;;;3.70;1.20;;;9.20;99.90;;;;;;5054328;28;20041;-78
2023/11/15 11:07:04;;;;;;;6.10;1.20;;;9.20;99.90;;;;;;5065746;28;20048;-78
2023/11/15 11:09:48;;;;;;;9.63;1.48;;;9.20;99.90;;;;;;5059877;28;20024;-78
2023/11/15 11:12:18;;;;;;;8.43;1.55;;;9.30;99.90;;;;;;5056046;28;20183;-78
2023/11/15 11:14:48;;;;;;;5.55;1.08;;;9.30;99.90;;;;;;5066042;28;20043;-78
2023/11/15 11:17:32;;;;;;;6.50;1.40;;;9.40;99.90;;;;;;5055435;28;20036;-78
2023/11/15 11:19:59;;;;;;;6.90;1.50;;;9.40;99.90;;;;;;5064055;28;20032;-79
2023/11/15 11:22:25;;;;;;;4.95;1.55;;;9.50;99.90;;;;;;5054789;28;20024;-78
2023/11/15 11:25:07;;;;;;;8.65;1.52;;;9.50;99.90;;;;;;5058592;28;20513;-78
2023/11/15 11:27:37;;;;;;;5.25;1.20;;;9.50;99.90;;;;;;5055625;28;20033;-77
2023/11/15 11:30:11;;;;;;;3.97;1.63;;;9.40;99.90;;;;;;5056583;28;20037;-78
2023/11/15 11:32:39;;;;;;;4.03;1.60;;;9.40;99.90;;;;;;5057803;28;20037;-79
2023/11/15 11:35:07;;;;;;;3.90;1.45;;;9.40;99.90;;;;;;5062627;28;20040;-78
2023/11/15 11:37:53;;;;;;;4.95;1.20;;;9.50;99.90;;;;;;5060435;28;20020;-78
2023/11/15 11:40:34;;;;;;;8.30;1.35;;;9.50;99.90;;;;;;5057883;28;20170;-78
2023/11/15 11:43:22;;;;;;;5.68;1.27;;;9.50;99.90;;;;;;5057842;28;20215;-78
2023/11/15 11:45:50;;;;;;;5.15;1.00;;;9.60;99.90;;;;;;5060106;28;20029;-78
2023/11/15 11:48:17;;;;;;;4.57;1.30;;;9.60;99.90;;;;;;5059211;28;20064;-78
2023/11/15 11:50:58;;;;;;;5.75;1.27;;;9.60;99.90;;;;;;5059811;28;20063;-79
2023/11/15 11:53:24;;;;;;;5.80;1.45;;;9.60;99.90;;;;;;5057820;28;20025;-78
2023/11/15 11:55:55;;;;;;;3.00;1.33;;;9.60;99.90;;;;;;5062527;28;20032;-78
2023/11/15 11:58:27;;;;;;;5.68;1.20;;;9.50;99.90;;;;;;5058034;28;20040;-79
2023/11/15 12:01:06;;;;;;;4.72;1.15;;;9.50;99.90;;;;;;5057824;28;20071;-78
2023/11/15 12:03:39;;;;;;;3.63;1.05;;;9.50;99.90;;;;;;5064898;28;20193;-79
2023/11/15 12:06:08;;;;;;;5.85;1.00;;;9.40;99.90;;;;;;5070478;28;20518;-77
2023/11/15 12:08:38;;;;;;;1.48;0.95;;;9.40;99.90;;;;;;5067898;28;20100;-79
2023/11/15 12:11:06;;;;;;;6.00;0.90;;;9.40;99.90;;;;;;5069650;28;20063;-78
2023/11/15 12:13:48;;;;;;;3.70;1.00;;;9.40;99.90;;;;;;5071192;28;20025;-78
2023/11/15 12:16:25;;;;;;;4.70;1.27;;;9.40;99.90;;;;;;5069443;28;20048;-79
2023/11/15 12:19:07;;;;;;;5.18;1.45;;;9.30;99.90;;;;;;5064733;28;20104;-79
2023/11/15 12:21:36;;;;;;;8.15;1.50;;;9.30;99.90;;;;;;5053836;28;20045;-78
2023/11/15 12:24:09;;;;;;;5.32;1.30;;;9.30;99.90;;;;;;5075397;28;20059;-78
2023/11/15 12:26:43;;;;;;;1.90;1.13;;;9.20;99.90;;;;;;5063958;28;20036;-78
2023/11/15 12:29:19;;;;;;;5.18;1.02;;;9.20;99.90;;;;;;5068800;28;20044;-78
2023/11/15 12:31:49;;;;;;;10.35;1.40;;;9.20;99.90;;;;;;5077558;28;20072;-78
2023/11/15 12:34:15;;;;;;;6.00;1.20;;;9.20;99.90;;;;;;5085308;28;20699;-78
2023/11/15 12:36:42;;;;;;;3.28;0.98;;;9.10;99.90;;;;;;5079783;28;20044;-78
2023/11/15 12:39:08;;;;;;;5.68;1.20;;;9.00;99.90;;;;;;5071053;28;20370;-78
2023/11/15 12:41:46;;;;;;;5.93;1.10;;;9.00;99.90;;;;;;5073244;28;20067;-78
2023/11/15 12:44:12;;;;;;;3.40;1.23;;;9.00;99.90;;;;;;5069706;28;20036;-79
2023/11/15 12:46:49;;;;;;;5.72;1.10;;;9.00;99.90;;;;;;5071625;28;20037;-78
2023/11/15 12:49:21;;;;;;;2.85;1.48;;;9.00;99.90;;;;;;5070353;28;20032;-78
2023/11/15 12:51:48;;;;;;;4.72;1.40;;;9.00;99.90;;;;;;5074250;28;20058;-78
2023/11/15 12:54:17;;;;;;;5.90;1.23;;;9.00;99.90;;;;;;5057356;28;20036;-78
2023/11/15 12:56:43;;;;;;;5.40;1.30;;;9.10;99.90;;;;;;5069245;28;20039;-78
2023/11/15 12:59:14;;;;;;;5.60;1.38;;;9.20;99.90;;;;;;5066882;28;20058;-80